Time;durP1;ratioP1;P1;durP2;ratioP2;P2;SDS_P1;SDS_P2;PMS_P1;PMS_P2;Temp;Humidity;BMP_temperature;BMP_pressure;BME280_temperature;BME280_humidity;BME280_pressure;Samples;Min_cycle;Max_cycle;Signal;HPM_P1;HPM_P2
2022/12/09 00:00:01;;;;;;;89.47;35.08;;;-0.30;99.90;;;;;;5074842;28;20025;-88
2022/12/09 00:02:28;;;;;;;87.60;33.85;;;-0.20;99.90;;;;;;5076483;28;20032;-87
2022/12/09 00:04:54;;;;;;;93.90;37.03;;;-0.30;99.90;;;;;;5074462;28;20033;-88
2022/12/09 00:07:20;;;;;;;92.15;36.47;;;-0.20;99.90;;;;;;5072063;28;20033;-88
2022/12/09 00:09:45;;;;;;;83.78;34.03;;;-0.20;99.90;;;;;;5076300;28;20074;-88
2022/12/09 00:12:11;;;;;;;91.65;36.72;;;-0.20;99.90;;;;;;5076048;28;20027;-88
2022/12/09 00:14:37;;;;;;;96.32;37.47;;;-0.30;99.90;;;;;;5064027;28;20831;-88
2022/12/09 00:17:02;;;;;;;92.75;37.03;;;-0.30;99.90;;;;;;5069308;28;20392;-88
2022/12/09 00:19:28;;;;;;;93.57;36.78;;;-0.30;99.90;;;;;;5089877;28;20024;-88
2022/12/09 00:21:54;;;;;;;97.70;37.83;;;-0.30;99.90;;;;;;5057541;28;20024;-88
2022/12/09 00:24:19;;;;;;;96.43;37.88;;;-0.30;99.90;;;;;;5058953;28;20039;-88
2022/12/09 00:26:45;;;;;;;87.55;36.35;;;-0.30;99.90;;;;;;5074696;28;20029;-88
2022/12/09 00:29:11;;;;;;;82.30;35.33;;;-0.20;99.90;;;;;;5075253;28;20032;-88
2022/12/09 00:31:37;;;;;;;78.03;34.53;;;-0.20;99.90;;;;;;5075381;28;20033;-88
2022/12/09 00:34:06;;;;;;;88.65;35.63;;;-0.30;99.90;;;;;;5070909;28;20017;-87
2022/12/09 00:36:32;;;;;;;83.50;35.28;;;-0.30;99.90;;;;;;5068965;28;20496;-88
2022/12/09 00:38:58;;;;;;;79.05;34.28;;;-0.30;99.90;;;;;;5057532;28;20071;-88
2022/12/09 00:41:25;;;;;;;85.70;34.35;;;-0.40;99.90;;;;;;5086219;28;20087;-88
2022/12/09 00:43:51;;;;;;;82.50;35.40;;;-0.30;99.90;;;;;;5063524;28;20111;-88
2022/12/09 00:46:17;;;;;;;71.75;33.25;;;-0.40;99.90;;;;;;5058751;28;20105;-88
2022/12/09 00:48:47;;;;;;;77.85;32.40;;;-0.40;99.90;;;;;;5076799;28;20024;-87
2022/12/09 00:51:16;;;;;;;79.18;32.83;;;-0.50;99.90;;;;;;5066490;28;20107;-88
2022/12/09 00:53:42;;;;;;;79.18;34.45;;;-0.50;99.90;;;;;;5075019;28;20472;-88
2022/12/09 00:56:07;;;;;;;82.40;31.80;;;-0.40;99.90;;;;;;5074911;28;20086;-88
2022/12/09 00:58:33;;;;;;;83.47;33.03;;;-0.40;99.90;;;;;;5075089;28;20028;-88
2022/12/09 01:00:59;;;;;;;79.25;31.15;;;-0.50;99.90;;;;;;5054471;28;20032;-88
2022/12/09 01:03:25;;;;;;;77.88;33.50;;;-0.60;99.90;;;;;;5052534;28;20028;-88
2022/12/09 01:05:50;;;;;;;84.43;34.17;;;-0.60;99.90;;;;;;5077286;28;20044;-87
2022/12/09 01:08:16;;;;;;;77.95;33.80;;;-0.60;99.90;;;;;;5052386;28;20032;-88
2022/12/09 01:11:17;;;;;;;81.97;33.30;;;-0.60;99.90;;;;;;5074401;28;20028;-88
2022/12/09 01:13:45;;;;;;;84.13;32.08;;;-0.60;99.90;;;;;;5070609;28;20472;-88
2022/12/09 01:16:23;;;;;;;84.15;32.45;;;-0.60;99.90;;;;;;5073813;28;20082;-88
2022/12/09 01:18:50;;;;;;;84.25;33.45;;;-0.60;99.90;;;;;;5071832;28;20033;-88
2022/12/09 01:21:16;;;;;;;82.90;34.22;;;-0.50;99.90;;;;;;5073974;28;20486;-88
2022/12/09 01:23:41;;;;;;;85.95;33.08;;;-0.60;99.90;;;;;;5050784;28;20124;-88
2022/12/09 01:26:07;;;;;;;83.22;32.30;;;-0.60;99.90;;;;;;5066078;28;20491;-88
2022/12/09 01:28:35;;;;;;;80.07;32.75;;;-0.60;99.90;;;;;;5054249;28;20028;-88
2022/12/09 01:31:27;;;;;;;85.22;34.00;;;-0.60;99.90;;;;;;5073235;28;20028;-88
2022/12/09 01:33:54;;;;;;;91.10;32.75;;;-0.60;99.90;;;;;;5079984;28;20033;-88
2022/12/09 01:36:22;;;;;;;82.25;31.77;;;-0.60;99.90;;;;;;5074276;28;20016;-87
2022/12/09 01:38:49;;;;;;;83.88;33.50;;;-0.60;99.90;;;;;;5072628;28;20357;-88
2022/12/09 01:41:17;;;;;;;84.38;33.08;;;-0.60;99.90;;;;;;5072929;28;20039;-88
2022/12/09 01:43:42;;;;;;;83.40;32.03;;;-0.50;99.90;;;;;;5074519;28;20056;-88
2022/12/09 01:46:08;;;;;;;84.03;33.83;;;-0.50;99.90;;;;;;5057306;28;20482;-88
2022/12/09 01:48:38;;;;;;;82.18;34.28;;;-0.50;99.90;;;;;;5054985;28;20034;-88
2022/12/09 01:51:17;;;;;;;89.43;33.47;;;-0.50;99.90;;;;;;5060878;28;20027;-88
2022/12/09 01:53:47;;;;;;;79.53;31.30;;;-0.60;99.90;;;;;;5073225;28;20024;-88
2022/12/09 01:56:27;;;;;;;76.05;31.13;;;-0.60;99.90;;;;;;5074384;28;20055;-88
2022/12/09 01:58:56;;;;;;;83.60;32.57;;;-0.60;99.90;;;;;;5073743;28;20491;-88
2022/12/09 02:01:22;;;;;;;77.53;31.55;;;-0.60;99.90;;;;;;5054266;28;20295;-87
2022/12/09 02:03:48;;;;;;;89.60;33.67;;;-0.60;99.90;;;;;;5082463;28;20036;-88
2022/12/09 02:06:14;;;;;;;78.72;32.75;;;-0.60;99.90;;;;;;5073627;28;20110;-88
2022/12/09 02:08:42;;;;;;;72.15;30.83;;;-0.50;99.90;;;;;;5077663;28;20024;-88
2022/12/09 02:11:26;;;;;;;84.88;33.00;;;-0.50;99.90;;;;;;5081138;28;20016;-88
2022/12/09 02:14:09;;;;;;;76.85;33.00;;;-0.50;99.90;;;;;;5053620;28;20036;-88
2022/12/09 02:16:59;;;;;;;73.15;31.58;;;-0.50;99.90;;;;;;5068784;28;20089;-88
2022/12/09 02:20:00;;;;;;;81.32;32.50;;;-0.50;99.90;;;;;;5071332;28;20032;-88
2022/12/09 02:22:33;;;;;;;72.53;31.92;;;-0.50;99.90;;;;;;5067650;28;20036;-87
2022/12/09 02:25:09;;;;;;;75.05;32.08;;;-0.50;99.90;;;;;;5055498;28;20416;-88
2022/12/09 02:27:45;;;;;;;81.97;31.08;;;-0.60;99.90;;;;;;5066785;28;20029;-88
2022/12/09 02:30:22;;;;;;;78.28;32.25;;;-0.60;99.90;;;;;;5086861;28;20353;-88
2022/12/09 02:32:50;;;;;;;75.00;31.23;;;-0.60;99.90;;;;;;5073174;28;20025;-88
2022/12/09 02:35:56;;;;;;;81.68;32.83;;;-0.60;99.90;;;;;;5067525;28;20017;-88
2022/12/09 02:38:30;;;;;;;75.75;32.60;;;-0.60;99.90;;;;;;5061625;28;20472;-88
2022/12/09 02:41:20;;;;;;;79.22;32.55;;;-0.60;99.90;;;;;;5074088;28;20065;-88
2022/12/09 02:43:51;;;;;;;75.32;33.60;;;-0.60;99.90;;;;;;5078011;28;20024;-88
2022/12/09 02:46:23;;;;;;;79.13;31.77;;;-0.60;99.90;;;;;;5073451;28;20530;-87
2022/12/09 02:48:57;;;;;;;71.40;31.52;;;-0.60;99.90;;;;;;5067884;28;20380;-88
2022/12/09 02:51:26;;;;;;;82.32;31.45;;;-0.70;99.90;;;;;;5089530;28;20025;-88
2022/12/09 02:53:55;;;;;;;70.20;28.73;;;-0.70;99.90;;;;;;5075822;28;20115;-87
2022/12/09 02:56:22;;;;;;;71.47;30.35;;;-0.80;99.90;;;;;;5077447;28;20024;-88
2022/12/09 02:58:49;;;;;;;75.38;30.13;;;-0.90;99.90;;;;;;5075445;28;20033;-88
2022/12/09 03:01:21;;;;;;;84.45;32.85;;;-0.90;99.90;;;;;;5057983;28;20483;-88
2022/12/09 03:03:47;;;;;;;76.40;30.70;;;-0.90;99.90;;;;;;5070246;28;20040;-88
2022/12/09 03:06:17;;;;;;;90.47;34.58;;;-1.00;99.90;;;;;;5076865;28;20036;-88
2022/12/09 03:08:57;;;;;;;80.00;32.65;;;-1.00;99.90;;;;;;5089227;28;20040;-88
2022/12/09 03:11:24;;;;;;;70.40;31.05;;;-1.00;99.90;;;;;;5071341;28;20472;-88
2022/12/09 03:14:10;;;;;;;70.85;29.45;;;-1.10;99.90;;;;;;5080557;28;20024;-88
2022/12/09 03:16:58;;;;;;;71.80;28.50;;;-1.10;99.90;;;;;;5070915;28;20024;-87
2022/12/09 03:19:41;;;;;;;73.18;30.20;;;-1.20;99.90;;;;;;5073161;28;20056;-87
2022/12/09 03:22:11;;;;;;;78.10;29.80;;;-1.30;99.90;;;;;;5059940;28;20380;-88
2022/12/09 03:24:59;;;;;;;78.63;29.77;;;-1.50;99.90;;;;;;5088154;28;20053;-88
2022/12/09 03:27:30;;;;;;;80.68;32.42;;;-1.60;99.90;;;;;;5059015;28;20044;-87
2022/12/09 03:30:00;;;;;;;88.32;31.90;;;-1.60;99.90;;;;;;5075216;28;20029;-87
2022/12/09 03:32:27;;;;;;;82.03;31.90;;;-1.80;99.90;;;;;;5076260;28;20024;-87
2022/12/09 03:35:00;;;;;;;98.30;33.92;;;-1.80;99.90;;;;;;5074491;28;20025;-87
2022/12/09 03:37:41;;;;;;;84.18;32.67;;;-1.90;99.90;;;;;;5070591;28;20043;-88
2022/12/09 03:40:11;;;;;;;88.53;32.20;;;-2.00;99.90;;;;;;5076074;28;20029;-87
2022/12/09 03:42:42;;;;;;;78.72;30.05;;;-2.10;99.90;;;;;;5076254;28;20036;-88
2022/12/09 03:45:13;;;;;;;82.28;29.25;;;-2.10;99.90;;;;;;5073847;28;20040;-88
2022/12/09 03:47:39;;;;;;;97.22;30.92;;;-2.20;99.90;;;;;;5067678;28;20068;-87
2022/12/09 03:50:07;;;;;;;81.13;28.95;;;-2.10;99.90;;;;;;5074141;28;20036;-88
2022/12/09 03:52:37;;;;;;;77.75;29.15;;;-2.20;99.90;;;;;;5082880;28;20021;-87
2022/12/09 03:55:18;;;;;;;92.60;33.15;;;-2.30;99.90;;;;;;5074305;28;20051;-87
2022/12/09 03:57:51;;;;;;;97.80;33.47;;;-2.30;99.90;;;;;;5086752;28;20033;-87
2022/12/09 04:00:17;;;;;;;100.30;34.05;;;-2.40;99.90;;;;;;5049413;28;20055;-87
2022/12/09 04:02:44;;;;;;;86.22;31.95;;;-2.60;99.90;;;;;;5053199;28;20374;-87
2022/12/09 04:05:10;;;;;;;100.72;33.70;;;-2.70;99.90;;;;;;5091054;28;20066;-87
2022/12/09 04:07:36;;;;;;;95.00;34.25;;;-2.70;99.90;;;;;;5070609;28;20464;-87
2022/12/09 04:10:04;;;;;;;108.70;37.92;;;-2.70;99.90;;;;;;5062865;28;20075;-87
2022/12/09 04:12:30;;;;;;;115.07;37.00;;;-2.60;99.90;;;;;;5088779;28;20032;-87
2022/12/09 04:14:55;;;;;;;115.63;38.63;;;-2.50;99.90;;;;;;5060000;28;20109;-87
2022/12/09 04:17:21;;;;;;;112.68;37.25;;;-2.50;99.90;;;;;;5091062;28;20490;-87
2022/12/09 04:19:46;;;;;;;107.72;35.70;;;-2.50;99.90;;;;;;5055113;28;20067;-87
2022/12/09 04:22:12;;;;;;;110.88;35.65;;;-2.60;99.90;;;;;;5057722;28;20028;-87
2022/12/09 04:24:38;;;;;;;122.20;37.35;;;-2.70;99.90;;;;;;5074980;28;20025;-87
2022/12/09 04:27:04;;;;;;;105.45;34.10;;;-2.80;99.90;;;;;;5072617;28;20032;-87
2022/12/09 04:29:29;;;;;;;112.15;37.00;;;-2.80;99.90;;;;;;5072870;28;20475;-87
2022/12/09 04:31:55;;;;;;;103.95;34.08;;;-2.80;99.90;;;;;;5059277;28;20021;-87
2022/12/09 04:34:21;;;;;;;105.80;32.13;;;-2.80;99.90;;;;;;5073805;28;20017;-87
2022/12/09 04:36:47;;;;;;;115.50;35.22;;;-2.70;99.90;;;;;;5065778;28;20112;-87
2022/12/09 04:39:13;;;;;;;114.68;35.75;;;-2.60;99.90;;;;;;5073087;28;20071;-87
2022/12/09 04:41:39;;;;;;;110.65;34.85;;;-2.50;99.90;;;;;;5071434;28;20384;-86
2022/12/09 04:44:05;;;;;;;112.13;36.67;;;-2.50;99.90;;;;;;5059810;28;20032;-87
2022/12/09 04:46:30;;;;;;;104.30;34.45;;;-2.50;99.90;;;;;;5074592;28;20028;-87
2022/12/09 04:48:56;;;;;;;114.13;35.15;;;-2.60;99.90;;;;;;5056550;28;20025;-87
2022/12/09 04:51:22;;;;;;;109.68;35.67;;;-2.80;99.90;;;;;;5074606;28;20099;-87
2022/12/09 04:53:47;;;;;;;112.72;37.40;;;-2.80;99.90;;;;;;5048420;28;20068;-87
2022/12/09 04:56:17;;;;;;;121.05;39.08;;;-2.80;99.90;;;;;;5056848;28;20024;-87
2022/12/09 04:58:43;;;;;;;142.15;42.88;;;-2.80;99.90;;;;;;5084124;28;20115;-86
2022/12/09 05:01:13;;;;;;;130.25;44.05;;;-2.90;99.90;;;;;;5072741;28;20480;-87
2022/12/09 05:03:38;;;;;;;151.85;44.65;;;-2.80;99.90;;;;;;5067409;28;20021;-87
2022/12/09 05:06:11;;;;;;;141.85;45.35;;;-2.80;99.90;;;;;;5073585;28;20032;-87
2022/12/09 05:08:37;;;;;;;153.35;45.72;;;-2.80;99.90;;;;;;5053531;28;20384;-87
2022/12/09 05:11:03;;;;;;;159.20;46.47;;;-2.80;99.90;;;;;;5053933;28;20479;-87
2022/12/09 05:13:30;;;;;;;165.05;47.45;;;-2.90;99.90;;;;;;5073315;28;20034;-87
2022/12/09 05:16:04;;;;;;;157.13;46.03;;;-2.90;99.90;;;;;;5070126;28;20432;-87
2022/12/09 05:18:30;;;;;;;153.50;48.47;;;-2.80;99.90;;;;;;5073123;28;20111;-87
2022/12/09 05:20:55;;;;;;;170.07;48.75;;;-2.80;99.90;;;;;;5054298;28;20059;-87
2022/12/09 05:23:21;;;;;;;161.07;50.55;;;-2.80;99.90;;;;;;5056458;28;20031;-87
2022/12/09 05:25:47;;;;;;;163.75;50.80;;;-2.80;99.90;;;;;;5073012;28;20029;-87
2022/12/09 05:28:13;;;;;;;159.90;48.70;;;-2.80;99.90;;;;;;5071217;28;20111;-88
2022/12/09 05:30:38;;;;;;;158.65;48.15;;;-2.80;99.90;;;;;;5067826;28;20028;-86
2022/12/09 05:33:04;;;;;;;162.90;49.63;;;-2.80;99.90;;;;;;5072099;28;20039;-87
2022/12/09 05:35:30;;;;;;;164.02;50.83;;;-2.90;99.90;;;;;;5072839;28;20021;-87
2022/12/09 05:37:56;;;;;;;154.73;47.42;;;-2.90;99.90;;;;;;5053768;28;20067;-87
2022/12/09 05:40:22;;;;;;;146.45;46.92;;;-2.90;99.90;;;;;;5072509;28;20502;-87
2022/12/09 05:42:47;;;;;;;158.68;49.17;;;-2.90;99.90;;;;;;5052864;28;20033;-87
2022/12/09 05:45:13;;;;;;;151.82;48.55;;;-2.90;99.90;;;;;;5071977;28;20387;-88
2022/12/09 05:47:39;;;;;;;153.50;48.53;;;-2.90;99.90;;;;;;5066683;28;20035;-87
2022/12/09 05:50:06;;;;;;;152.90;51.13;;;-2.80;99.90;;;;;;5079968;28;20475;-86
2022/12/09 05:52:34;;;;;;;157.63;47.38;;;-2.80;99.90;;;;;;5066091;28;20029;-87
2022/12/09 05:55:03;;;;;;;133.80;46.80;;;-2.80;99.90;;;;;;5086365;28;20032;-87
2022/12/09 05:57:28;;;;;;;140.18;46.85;;;-2.80;99.90;;;;;;5085943;28;20067;-87
2022/12/09 05:59:54;;;;;;;151.25;48.00;;;-2.70;99.90;;;;;;5070638;28;20388;-87
2022/12/09 06:02:20;;;;;;;144.80;46.95;;;-2.70;99.90;;;;;;5066206;28;20120;-87
2022/12/09 06:04:46;;;;;;;142.95;47.67;;;-2.80;99.90;;;;;;5047298;28;20086;-87
2022/12/09 06:07:11;;;;;;;139.75;44.20;;;-2.80;99.90;;;;;;5054327;28;20032;-87
2022/12/09 06:09:37;;;;;;;146.23;44.10;;;-2.80;99.90;;;;;;5062476;28;20043;-87
2022/12/09 06:12:03;;;;;;;149.85;44.15;;;-2.80;99.90;;;;;;5069482;28;20465;-87
2022/12/09 06:14:29;;;;;;;143.57;44.50;;;-2.70;99.90;;;;;;5079421;28;20136;-87
2022/12/09 06:16:55;;;;;;;127.55;39.70;;;-2.60;99.90;;;;;;5055798;28;20029;-87
2022/12/09 06:19:20;;;;;;;123.03;39.97;;;-2.60;99.90;;;;;;5070145;28;20044;-87
2022/12/09 06:21:46;;;;;;;139.40;43.25;;;-2.60;99.90;;;;;;5068646;28;20111;-87
2022/12/09 06:24:11;;;;;;;144.93;47.30;;;-2.60;99.90;;;;;;5057974;28;20036;-87
2022/12/09 06:26:37;;;;;;;162.60;47.70;;;-2.70;99.90;;;;;;5071169;28;20041;-87
2022/12/09 06:29:03;;;;;;;171.18;51.20;;;-2.60;99.90;;;;;;5066114;28;20120;-87
2022/12/09 06:31:28;;;;;;;165.23;52.20;;;-2.60;99.90;;;;;;5055812;28;20029;-87
2022/12/09 06:33:54;;;;;;;159.40;49.13;;;-2.60;99.90;;;;;;5060791;28;20025;-87
2022/12/09 06:36:20;;;;;;;151.77;47.58;;;-2.60;99.90;;;;;;5057226;28;20028;-87
2022/12/09 06:38:46;;;;;;;164.57;50.10;;;-2.60;99.90;;;;;;5049303;28;20032;-87
2022/12/09 06:41:14;;;;;;;177.75;51.63;;;-2.60;99.90;;;;;;5069073;28;20358;-87
2022/12/09 06:43:40;;;;;;;163.68;50.92;;;-2.50;99.90;;;;;;5062360;28;20029;-87
2022/12/09 06:46:14;;;;;;;168.60;50.10;;;-2.50;99.90;;;;;;5068850;28;20056;-87
2022/12/09 06:48:40;;;;;;;168.68;50.03;;;-2.40;99.90;;;;;;5071376;28;20041;-87
2022/12/09 06:51:06;;;;;;;167.02;52.00;;;-2.50;99.90;;;;;;5065138;28;20029;-87
2022/12/09 06:53:32;;;;;;;171.80;50.63;;;-2.60;99.90;;;;;;5071674;28;20070;-87
2022/12/09 06:56:06;;;;;;;172.32;53.00;;;-2.70;99.90;;;;;;5055706;28;20426;-87
2022/12/09 06:58:32;;;;;;;173.48;52.33;;;-2.70;99.90;;;;;;5064085;28;20068;-87
2022/12/09 07:01:15;;;;;;;188.35;55.17;;;-2.70;99.90;;;;;;5054904;28;20495;-87
2022/12/09 07:03:42;;;;;;;166.57;53.97;;;-2.70;99.90;;;;;;5078574;28;20032;-87
2022/12/09 07:06:34;;;;;;;180.45;56.03;;;-2.70;99.90;;;;;;5046481;28;20048;-87
2022/12/09 07:09:06;;;;;;;164.73;53.60;;;-2.70;99.90;;;;;;5051487;28;20052;-87
2022/12/09 07:11:32;;;;;;;196.63;54.75;;;-2.70;99.90;;;;;;5070416;28;20051;-86
2022/12/09 07:13:58;;;;;;;170.18;53.75;;;-2.60;99.90;;;;;;5068900;28;20809;-87
2022/12/09 07:16:24;;;;;;;165.05;54.10;;;-2.60;99.90;;;;;;5063894;28;20029;-87
2022/12/09 07:19:06;;;;;;;163.75;51.78;;;-2.60;99.90;;;;;;5067586;28;20033;-87
2022/12/09 07:21:35;;;;;;;184.52;52.08;;;-2.60;99.90;;;;;;5057291;28;20033;-87
2022/12/09 07:24:02;;;;;;;169.23;55.13;;;-2.60;99.90;;;;;;5065498;28;20056;-87
2022/12/09 07:26:31;;;;;;;175.98;55.60;;;-2.50;99.90;;;;;;5070349;28;20484;-87
2022/12/09 07:28:59;;;;;;;167.20;52.10;;;-2.40;99.90;;;;;;5066050;28;20033;-87
2022/12/09 07:31:26;;;;;;;162.82;53.22;;;-2.40;99.90;;;;;;5086316;28;20052;-87
2022/12/09 07:33:54;;;;;;;171.02;50.42;;;-2.40;99.90;;;;;;5071577;28;20036;-87
2022/12/09 07:36:21;;;;;;;149.55;46.47;;;-2.30;99.90;;;;;;5055124;28;20392;-87
2022/12/09 07:38:52;;;;;;;149.98;47.33;;;-2.30;99.90;;;;;;5054427;28;20116;-87
2022/12/09 07:41:18;;;;;;;156.07;48.20;;;-2.20;99.90;;;;;;5047802;28;20063;-87
2022/12/09 07:43:44;;;;;;;139.45;44.58;;;-2.10;99.90;;;;;;5069235;28;20024;-87
2022/12/09 07:46:12;;;;;;;153.00;44.67;;;-2.10;99.90;;;;;;5070421;28;20025;-87
2022/12/09 07:48:48;;;;;;;133.05;44.35;;;-2.10;99.90;;;;;;5070600;28;20036;-87
2022/12/09 07:51:14;;;;;;;136.60;42.92;;;-2.00;99.90;;;;;;5071116;28;20025;-87
2022/12/09 07:53:39;;;;;;;133.88;47.10;;;-1.90;99.90;;;;;;5073183;28;20017;-87
2022/12/09 07:56:08;;;;;;;138.43;46.55;;;-1.90;99.90;;;;;;5090064;28;20029;-87
2022/12/09 07:58:34;;;;;;;133.57;48.00;;;-1.80;99.90;;;;;;5063248;28;20029;-87
2022/12/09 08:01:07;;;;;;;140.82;51.33;;;-1.80;99.90;;;;;;5066504;28;20032;-87
2022/12/09 08:03:34;;;;;;;152.38;52.58;;;-1.70;99.90;;;;;;5038010;28;20029;-87
2022/12/09 08:06:00;;;;;;;148.23;49.20;;;-1.60;99.90;;;;;;5068721;28;20024;-87
2022/12/09 08:08:26;;;;;;;152.15;52.47;;;-1.60;99.90;;;;;;5070624;28;20041;-87
2022/12/09 08:10:53;;;;;;;142.45;49.00;;;-1.60;99.90;;;;;;5067265;28;20021;-87
2022/12/09 08:13:43;;;;;;;148.93;54.13;;;-1.50;99.90;;;;;;5067505;28;20052;-87
2022/12/09 08:16:12;;;;;;;164.23;52.08;;;-1.40;99.90;;;;;;5049468;28;20025;-87
2022/12/09 08:18:38;;;;;;;166.57;56.80;;;-1.40;99.90;;;;;;5070888;28;20035;-87
2022/12/09 08:21:07;;;;;;;169.88;54.83;;;-1.40;99.90;;;;;;5056910;28;20082;-88
2022/12/09 08:23:33;;;;;;;156.15;55.83;;;-1.30;99.90;;;;;;5065600;28;20115;-87
2022/12/09 08:25:59;;;;;;;159.52;54.25;;;-1.30;99.90;;;;;;5052043;28;20536;-87
2022/12/09 08:28:25;;;;;;;155.20;53.92;;;-1.20;99.90;;;;;;5072392;28;20035;-87
2022/12/09 08:30:51;;;;;;;154.23;53.38;;;-1.20;99.90;;;;;;5072860;28;20041;-87
2022/12/09 08:33:20;;;;;;;153.65;50.25;;;-1.20;99.90;;;;;;5069631;28;20039;-87
2022/12/09 08:35:45;;;;;;;149.73;50.67;;;-1.10;99.90;;;;;;5055597;28;20029;-87
2022/12/09 08:38:11;;;;;;;140.18;49.85;;;-1.00;99.90;;;;;;5064833;28;20159;-87
2022/12/09 08:40:37;;;;;;;142.05;47.72;;;-1.00;99.90;;;;;;5054898;28;20422;-87
2022/12/09 08:43:05;;;;;;;135.32;48.20;;;-0.90;99.90;;;;;;5054411;28;20543;-87
2022/12/09 08:45:39;;;;;;;130.45;47.13;;;-0.80;99.90;;;;;;5070185;28;20618;-87
2022/12/09 08:48:06;;;;;;;139.98;47.03;;;-0.80;99.90;;;;;;5064226;28;20358;-87
2022/12/09 08:50:32;;;;;;;142.27;48.75;;;-0.80;99.90;;;;;;5070212;28;20146;-87
2022/12/09 08:52:58;;;;;;;126.70;46.03;;;-0.70;99.90;;;;;;5068732;28;20028;-88
2022/12/09 08:55:24;;;;;;;110.13;43.58;;;-0.70;99.90;;;;;;5070359;28;20017;-87
2022/12/09 08:57:50;;;;;;;133.43;43.60;;;-0.70;99.90;;;;;;5055581;28;20734;-87
2022/12/09 09:00:16;;;;;;;130.20;44.28;;;-0.60;99.90;;;;;;5040927;28;20032;-87
2022/12/09 09:02:42;;;;;;;128.20;44.80;;;-0.60;99.90;;;;;;5056384;28;20021;-87
2022/12/09 09:05:11;;;;;;;118.13;42.67;;;-0.50;99.90;;;;;;5072933;28;20029;-88
2022/12/09 09:07:37;;;;;;;113.10;41.75;;;-0.40;99.90;;;;;;5038652;28;20384;-87
2022/12/09 09:10:04;;;;;;;114.72;40.70;;;-0.30;99.90;;;;;;5068619;28;20033;-87
2022/12/09 09:12:30;;;;;;;106.90;40.38;;;-0.30;99.90;;;;;;5070809;28;20029;-87
2022/12/09 09:14:56;;;;;;;110.18;42.80;;;-0.30;99.90;;;;;;5059561;28;20028;-87
2022/12/09 09:17:30;;;;;;;122.47;41.83;;;-0.20;99.90;;;;;;5070053;28;20078;-87
2022/12/09 09:19:56;;;;;;;91.45;36.60;;;-0.20;99.90;;;;;;5072242;28;20025;-87
2022/12/09 09:22:22;;;;;;;89.72;36.08;;;-0.20;99.90;;;;;;5060241;28;20070;-88
2022/12/09 09:24:47;;;;;;;84.30;34.58;;;-0.10;99.90;;;;;;5057225;28;20452;-87
2022/12/09 09:27:13;;;;;;;80.15;32.35;;;0.10;99.90;;;;;;5067330;28;20021;-87
2022/12/09 09:29:39;;;;;;;75.60;31.08;;;0.00;99.90;;;;;;5056040;28;20463;-87
2022/12/09 09:32:04;;;;;;;69.20;28.40;;;0.10;99.90;;;;;;5037802;28;20384;-87
2022/12/09 09:34:36;;;;;;;62.50;28.80;;;0.00;99.90;;;;;;5059974;28;20037;-87
2022/12/09 09:37:02;;;;;;;67.05;28.55;;;0.10;99.90;;;;;;5068350;28;20017;-87
2022/12/09 09:39:28;;;;;;;58.33;26.20;;;0.10;99.90;;;;;;5069971;28;20480;-87
2022/12/09 09:42:00;;;;;;;52.47;23.85;;;0.20;99.90;;;;;;5055589;28;20036;-87
2022/12/09 09:44:45;;;;;;;54.13;25.35;;;0.10;99.90;;;;;;5070785;28;20060;-87
2022/12/09 09:47:16;;;;;;;53.92;23.67;;;0.10;99.90;;;;;;5068978;28;20028;-87
2022/12/09 09:49:52;;;;;;;60.70;27.60;;;0.10;99.90;;;;;;5066059;28;20058;-87
2022/12/09 09:52:21;;;;;;;63.70;27.20;;;0.10;99.90;;;;;;5068814;28;20346;-87
2022/12/09 09:54:47;;;;;;;63.45;28.00;;;-0.10;99.90;;;;;;5071817;28;20029;-87
2022/12/09 09:57:36;;;;;;;59.50;26.98;;;0.00;99.90;;;;;;5072456;28;20031;-87
2022/12/09 10:00:11;;;;;;;60.15;28.00;;;0.00;99.90;;;;;;5066098;28;20074;-87
2022/12/09 10:02:59;;;;;;;72.82;30.20;;;0.00;99.90;;;;;;5071282;28;20053;-87
2022/12/09 10:05:34;;;;;;;56.35;26.98;;;0.20;99.90;;;;;;5069665;28;20365;-87
2022/12/09 10:08:15;;;;;;;59.67;25.58;;;0.30;99.90;;;;;;5070723;28;20034;-87
2022/12/09 10:10:52;;;;;;;55.63;25.87;;;0.30;99.90;;;;;;5066996;28;20045;-87
2022/12/09 10:13:56;;;;;;;61.67;27.73;;;0.40;99.90;;;;;;5090696;28;20032;-87
2022/12/09 10:16:42;;;;;;;61.60;26.23;;;0.50;99.90;;;;;;5067902;28;20040;-87
2022/12/09 10:19:26;;;;;;;53.65;23.52;;;0.60;99.90;;;;;;5071568;28;20122;-87
2022/12/09 10:21:53;;;;;;;55.30;25.10;;;0.50;99.90;;;;;;5068615;28;20387;-87
2022/12/09 10:24:27;;;;;;;56.20;24.42;;;0.50;99.90;;;;;;5056851;28;20396;-87
2022/12/09 10:27:08;;;;;;;55.28;25.85;;;0.60;99.90;;;;;;5082367;28;20078;-87
2022/12/09 10:29:45;;;;;;;48.47;22.48;;;0.70;99.90;;;;;;5067195;28;20040;-87
2022/12/09 10:32:16;;;;;;;54.05;23.50;;;0.60;99.90;;;;;;5052361;28;20041;-87
2022/12/09 10:34:42;;;;;;;54.05;22.67;;;0.60;99.90;;;;;;5066741;28;20020;-87
2022/12/09 10:37:29;;;;;;;67.00;26.08;;;0.80;99.90;;;;;;5055334;28;20025;-87
2022/12/09 10:40:03;;;;;;;48.88;22.73;;;0.90;99.90;;;;;;5069696;28;20537;-88
2022/12/09 10:45:17;;;;;;;45.85;21.05;;;0.80;99.90;;;;;;5073990;28;20017;-88
2022/12/09 10:47:50;;;;;;;45.15;20.55;;;0.90;99.90;;;;;;5068664;28;20039;-88
2022/12/09 10:50:36;;;;;;;42.10;19.75;;;0.80;99.90;;;;;;5064179;28;20025;-87
2022/12/09 10:53:11;;;;;;;41.92;20.85;;;0.80;99.90;;;;;;5068712;28;20033;-87
2022/12/09 10:55:41;;;;;;;41.40;20.17;;;0.70;99.90;;;;;;5054795;28;20028;-87
2022/12/09 10:58:23;;;;;;;48.25;23.35;;;0.60;99.90;;;;;;5063981;28;20062;-87
2022/12/09 11:01:03;;;;;;;49.50;21.85;;;0.50;99.90;;;;;;5055667;28;20029;-87
2022/12/09 11:03:37;;;;;;;46.42;22.08;;;0.50;99.90;;;;;;5068809;28;20070;-88
2022/12/09 11:06:15;;;;;;;46.08;21.02;;;0.50;99.90;;;;;;5091337;28;20119;-87
2022/12/09 11:08:47;;;;;;;43.08;20.70;;;0.60;99.90;;;;;;5078676;28;20032;-88
2022/12/09 11:11:13;;;;;;;49.42;22.75;;;0.70;99.90;;;;;;5082726;28;20484;-87
2022/12/09 11:13:41;;;;;;;47.38;22.33;;;0.60;99.90;;;;;;5076388;28;20043;-88
2022/12/09 11:16:08;;;;;;;46.47;22.63;;;0.70;99.90;;;;;;5076697;28;20386;-88
2022/12/09 11:18:46;;;;;;;43.30;19.77;;;0.90;99.90;;;;;;5058626;28;20062;-87
2022/12/09 11:21:39;;;;;;;45.67;22.15;;;0.90;99.90;;;;;;5103388;28;20074;-87
2022/12/09 11:24:20;;;;;;;45.13;20.63;;;1.00;99.90;;;;;;4972887;28;20038;-88
2022/12/09 11:26:45;;;;;;;52.40;22.08;;;1.10;99.90;;;;;;5087649;28;20383;-88
2022/12/09 11:29:17;;;;;;;53.28;23.17;;;1.10;99.90;;;;;;5108778;28;20119;-88
2022/12/09 11:31:44;;;;;;;47.85;21.75;;;1.20;99.90;;;;;;5079669;28;20062;-87
2022/12/09 11:34:27;;;;;;;51.28;24.45;;;1.20;99.90;;;;;;5104757;28;20043;-88
2022/12/09 11:36:57;;;;;;;43.22;21.70;;;1.10;99.90;;;;;;5060227;28;20028;-88
2022/12/09 11:39:34;;;;;;;45.17;21.92;;;1.10;99.90;;;;;;5088410;28;20020;-88
2022/12/09 11:42:17;;;;;;;50.08;22.80;;;1.30;99.90;;;;;;5083615;28;20122;-88
2022/12/09 11:44:57;;;;;;;174.32;71.03;;;1.30;99.90;;;;;;5078820;28;20064;-89
2022/12/09 11:47:39;;;;;;;59.70;25.92;;;1.30;99.90;;;;;;5071290;28;20024;-88
2022/12/09 11:50:24;;;;;;;44.25;21.60;;;1.30;99.90;;;;;;5069418;28;20017;-88
2022/12/09 11:53:12;;;;;;;43.92;20.90;;;1.20;99.90;;;;;;5082447;28;20111;-88
2022/12/09 11:55:44;;;;;;;49.28;21.52;;;0.90;99.90;;;;;;5069383;28;20484;-88
2022/12/09 11:58:14;;;;;;;56.50;22.13;;;0.80;99.90;;;;;;5052949;28;20124;-88
2022/12/09 12:01:06;;;;;;;47.05;22.15;;;0.70;99.90;;;;;;5076332;28;20032;-88
2022/12/09 12:03:38;;;;;;;45.53;22.80;;;0.60;99.90;;;;;;5065931;28;20467;-88
2022/12/09 12:06:22;;;;;;;50.72;22.70;;;0.50;99.90;;;;;;5071326;28;20150;-88
2022/12/09 12:09:03;;;;;;;44.75;22.15;;;0.50;99.90;;;;;;5062907;28;20032;-88
2022/12/09 12:11:37;;;;;;;45.47;20.70;;;0.50;99.90;;;;;;5073335;28;20033;-88
2022/12/09 12:14:13;;;;;;;43.47;20.13;;;0.40;99.90;;;;;;5084194;28;20024;-87
2022/12/09 12:16:47;;;;;;;40.08;19.67;;;0.40;99.90;;;;;;5074130;28;20029;-88
2022/12/09 12:19:29;;;;;;;46.17;21.15;;;0.40;99.90;;;;;;5084816;28;20028;-88
2022/12/09 12:21:55;;;;;;;;;;;0.30;99.90;;;;;;5081057;28;20545;-88
2022/12/09 12:24:29;;;;;;;49.97;20.45;;;0.30;99.90;;;;;;5085933;28;19904;-87
2022/12/09 12:27:24;;;;;;;51.75;22.92;;;0.30;99.90;;;;;;5081840;28;20113;-87
2022/12/09 12:30:05;;;;;;;51.65;23.70;;;0.20;99.90;;;;;;5032151;28;20060;-88
2022/12/09 12:33:01;;;;;;;50.67;23.30;;;0.30;99.90;;;;;;5055046;28;20028;-87
2022/12/09 12:35:46;;;;;;;56.15;24.17;;;0.50;99.90;;;;;;5064720;28;20036;-88
2022/12/09 12:38:41;;;;;;;50.90;22.95;;;0.80;99.90;;;;;;5089264;28;20036;-88
2022/12/09 12:41:16;;;;;;;49.58;23.10;;;1.10;99.90;;;;;;5055489;28;20051;-87
2022/12/09 12:47:18;;;;;;;50.38;23.42;;;1.40;99.90;;;;;;5077470;28;20039;-88
2022/12/09 12:50:12;;;;;;;49.65;25.02;;;1.20;99.90;;;;;;5073362;28;20487;-88